Time;durP1;ratioP1;P1;durP2;ratioP2;P2;SDS_P1;SDS_P2;PMS_P1;PMS_P2;Temp;Humidity;BMP_temperature;BMP_pressure;BME280_temperature;BME280_humidity;BME280_pressure;Samples;Min_cycle;Max_cycle;Signal;HPM_P1;HPM_P2
2022/03/12 00:04:41;;;;;;;9.10;4.13;;;;;;;17.07;48.01;96699.88;10441532;28;20033;-21
2022/03/12 00:09:43;;;;;;;7.75;4.10;;;;;;;17.06;47.76;96704.09;10459358;28;20033;-21
2022/03/12 00:14:45;;;;;;;5.28;3.30;;;;;;;17.01;47.34;96709.97;10451781;28;20066;-20
2022/03/12 00:19:46;;;;;;;6.50;3.35;;;;;;;17.04;47.15;96709.97;10460148;28;20029;-21
2022/03/12 00:24:47;;;;;;;4.33;3.30;;;;;;;17.04;46.99;96708.31;10455154;28;20485;-21
2022/03/12 00:29:49;;;;;;;4.95;3.50;;;;;;;17.00;47.24;96703.22;10446875;28;20292;-21
2022/03/12 00:34:49;;;;;;;4.68;3.83;;;;;;;17.03;46.98;96708.28;10454601;28;20405;-21
2022/03/12 00:39:50;;;;;;;4.63;3.57;;;;;;;17.01;47.20;96709.97;10457221;28;20515;-21
2022/03/12 00:44:50;;;;;;;5.72;3.10;;;;;;;17.01;47.03;96705.75;10457404;28;21404;-20
2022/03/12 00:49:51;;;;;;;3.67;2.80;;;;;;;17.02;47.01;96722.63;10444065;28;20048;-21
2022/03/12 00:54:51;;;;;;;3.40;2.70;;;;;;;17.02;47.26;96711.66;10447186;28;20293;-21
2022/03/12 00:59:52;;;;;;;6.80;3.05;;;;;;;17.01;47.19;96717.56;10453796;28;20286;-21
2022/03/12 01:04:54;;;;;;;6.97;3.70;;;;;;;17.04;48.16;96725.16;10450296;28;20033;-22
2022/03/12 01:09:54;;;;;;;4.22;3.03;;;;;;;17.07;48.49;96730.25;10457153;28;20032;-21
2022/03/12 01:14:55;;;;;;;3.85;3.13;;;;;;;17.02;47.70;96729.34;10462398;28;20036;-21
2022/03/12 01:19:55;;;;;;;4.78;3.15;;;;;;;16.98;47.27;96731.00;10450127;28;20070;-21
2022/03/12 01:24:55;;;;;;;3.90;3.07;;;;;;;16.97;47.49;96728.47;10430604;28;20483;-21
2022/03/12 01:29:56;;;;;;;4.25;2.88;;;;;;;16.98;47.10;96720.06;10450453;28;20291;-22
2022/03/12 01:34:59;;;;;;;3.53;2.67;;;;;;;16.97;47.27;96725.94;10458715;28;20032;-23
2022/03/12 01:39:59;;;;;;;5.70;2.40;;;;;;;16.95;47.29;96728.47;10459840;28;20036;-21
2022/03/12 01:45:00;;;;;;;4.87;3.10;;;;;;;16.96;47.08;96724.25;10460191;28;20698;-21
2022/03/12 01:50:01;;;;;;;6.00;2.95;;;;;;;16.96;47.22;96734.38;10441897;28;20298;-21
2022/03/12 01:55:04;;;;;;;2.85;2.42;;;;;;;16.94;47.15;96723.41;10464487;28;20570;-21
2022/03/12 02:00:05;;;;;;;3.40;2.45;;;;;;;16.94;46.83;96723.41;10458561;28;20068;-21
2022/03/12 02:05:16;;;;;;;2.97;2.67;;;;;;;16.95;46.88;96715.84;10429762;28;20457;-21
2022/03/12 02:10:20;;;;;;;6.20;3.78;;;;;;;17.00;48.67;96715.88;10460217;28;20093;-21
2022/03/12 02:15:22;;;;;;;5.45;3.08;;;;;;;17.04;48.40;96715.03;10455782;28;20028;-22
2022/03/12 02:20:25;;;;;;;4.72;3.50;;;;;;;16.99;47.15;96721.75;10460834;28;20047;-21
2022/03/12 02:25:28;;;;;;;3.83;2.92;;;;;;;16.93;47.50;96716.66;10456977;28;20059;-22
2022/03/12 02:30:47;;;;;;;3.35;3.05;;;;;;;16.93;47.12;96716.66;10447946;28;20041;-21
2022/03/12 02:35:47;;;;;;;3.28;2.40;;;;;;;16.93;47.25;96721.72;10443563;28;20042;-20
2022/03/12 02:40:49;;;;;;;3.47;2.65;;;;;;;16.94;47.48;96720.88;10458204;28;20041;-22
2022/03/12 02:45:50;;;;;;;3.38;2.70;;;;;;;16.93;47.49;96711.59;10455427;28;20059;-21
2022/03/12 02:50:53;;;;;;;3.10;2.63;;;;;;;16.93;47.13;96709.94;10441246;28;20036;-23
2022/03/12 02:55:53;;;;;;;5.50;2.67;;;;;;;16.92;47.09;96718.31;10461237;28;20166;-23
2022/03/12 03:00:53;;;;;;;2.75;2.35;;;;;;;16.93;47.03;96714.13;10418682;28;20029;-21
2022/03/12 03:05:55;;;;;;;2.77;2.23;;;;;;;16.94;46.91;96715.81;10453981;28;20048;-23
2022/03/12 03:10:58;;;;;;;3.78;2.75;;;;;;;16.92;47.08;96710.75;10455173;28;20271;-21
2022/03/12 03:16:06;;;;;;;6.38;2.90;;;;;;;16.99;48.49;96709.13;10465691;28;20272;-21
2022/03/12 03:21:13;;;;;;;5.68;3.10;;;;;;;17.01;48.66;96709.97;10454101;28;20041;-21
2022/03/12 03:26:19;;;;;;;3.88;2.88;;;;;;;16.96;48.58;96711.59;10461992;28;20036;-21
2022/03/12 03:31:19;;;;;;;2.97;2.58;;;;;;;16.92;47.31;96715.78;10448192;28;20064;-21
2022/03/12 03:36:20;;;;;;;3.30;2.63;;;;;;;16.94;47.13;96715.81;10451591;28;20484;-22
2022/03/12 03:41:20;;;;;;;3.03;1.97;;;;;;;16.93;46.97;96719.19;10438492;28;20484;-21
2022/03/12 03:46:22;;;;;;;3.77;2.73;;;;;;;16.92;47.34;96720.03;10455060;28;20344;-21
2022/03/12 03:51:23;;;;;;;4.95;2.92;;;;;;;16.92;46.79;96714.97;10440295;28;20291;-21
2022/03/12 03:56:24;;;;;;;4.82;2.53;;;;;;;16.92;46.90;96714.97;10458458;28;20025;-22
2022/03/12 04:01:25;;;;;;;2.50;2.10;;;;;;;16.84;47.31;96706.50;10451687;28;20033;-21
2022/03/12 04:06:27;;;;;;;2.80;2.03;;;;;;;16.93;47.31;96717.53;10457572;28;20029;-21
2022/03/12 04:11:27;;;;;;;3.58;2.40;;;;;;;16.94;47.07;96733.53;10460488;28;20496;-22
2022/03/12 04:16:31;;;;;;;3.58;2.70;;;;;;;16.93;47.06;96734.34;10451642;28;20408;-23
2022/03/12 04:21:31;;;;;;;4.45;2.97;;;;;;;16.95;48.33;96737.75;10451468;28;20038;-21
2022/03/12 04:26:35;;;;;;;4.35;2.47;;;;;;;16.99;48.39;96744.53;10450626;28;20033;-21
2022/03/12 04:31:36;;;;;;;3.58;2.45;;;;;;;16.97;48.29;96734.38;10458287;28;20565;-22
2022/03/12 04:36:36;;;;;;;2.63;2.42;;;;;;;16.93;47.36;96734.34;10435202;28;20088;-21
2022/03/12 04:41:39;;;;;;;3.33;2.67;;;;;;;16.94;46.98;96748.69;10437233;28;20040;-21
2022/03/12 04:46:40;;;;;;;2.40;2.05;;;;;;;16.90;47.04;96747.00;10460037;28;20278;-24
2022/03/12 04:51:43;;;;;;;3.47;2.33;;;;;;;16.92;47.16;96763.84;10447036;28;20034;-22
2022/03/12 04:56:44;;;;;;;3.80;2.42;;;;;;;16.95;47.31;96760.50;10455795;28;20043;-21
2022/03/12 05:01:46;;;;;;;3.20;2.40;;;;;;;16.94;47.28;96763.88;10456610;28;20045;-21
2022/03/12 05:06:46;;;;;;;2.60;2.33;;;;;;;16.93;47.01;96767.25;10455962;28;20033;-21
2022/03/12 05:11:48;;;;;;;2.43;2.17;;;;;;;16.92;47.34;96768.06;10448873;28;20041;-22
2022/03/12 05:16:48;;;;;;;5.15;2.78;;;;;;;16.93;46.87;96767.25;10460668;28;20049;-23
2022/03/12 05:21:49;;;;;;;3.30;2.63;;;;;;;16.94;47.04;96769.78;10450540;28;20565;-24
2022/03/12 05:26:50;;;;;;;2.90;2.17;;;;;;;16.93;47.36;96772.28;10461703;28;20032;-22
2022/03/12 05:31:52;;;;;;;3.78;2.47;;;;;;;16.98;48.50;96773.19;10450334;28;20127;-21
2022/03/12 05:36:52;;;;;;;4.50;2.60;;;;;;;16.97;48.18;96779.06;10454539;28;20063;-21
2022/03/12 05:41:55;;;;;;;3.53;2.13;;;;;;;16.97;47.20;96789.16;10458699;28;20060;-23
2022/03/12 05:47:04;;;;;;;3.80;2.22;;;;;;;17.00;47.32;96779.09;10446836;28;20033;-22
2022/03/12 05:52:05;;;;;;;3.28;2.97;;;;;;;17.02;46.82;96782.47;10457622;28;20430;-21
2022/03/12 05:57:06;;;;;;;3.00;2.47;;;;;;;17.03;47.23;96791.75;10456217;28;20112;-21
2022/03/12 06:02:06;;;;;;;3.80;2.43;;;;;;;17.01;47.03;96788.38;10446761;28;20043;-20
2022/03/12 06:07:09;;;;;;;3.27;2.30;;;;;;;17.01;47.22;96788.38;10447511;28;20286;-21
2022/03/12 06:12:17;;;;;;;3.35;2.10;;;;;;;17.02;47.01;96795.97;10457683;28;20462;-21
2022/03/12 06:17:19;;;;;;;4.47;2.55;;;;;;;16.93;47.23;96772.28;10452501;28;20131;-22
2022/03/12 06:22:19;;;;;;;5.05;2.25;;;;;;;17.03;47.25;96789.22;10455886;28;20450;-21
2022/03/12 06:27:21;;;;;;;3.10;2.10;;;;;;;17.04;47.12;96796.81;10447620;28;20029;-20
2022/03/12 06:32:21;;;;;;;3.60;2.10;;;;;;;17.05;47.11;96792.59;10449605;28;20033;-21
2022/03/12 06:37:21;;;;;;;2.55;2.35;;;;;;;17.08;47.66;96798.53;10454317;28;20033;-21
2022/03/12 06:42:24;;;;;;;2.30;2.10;;;;;;;17.10;47.23;96806.13;10435232;28;20419;-21
2022/03/12 06:47:32;;;;;;;2.55;2.20;;;;;;;17.08;46.97;96798.53;10452790;28;20259;-21
2022/03/12 06:52:32;;;;;;;3.35;2.42;;;;;;;17.07;47.11;96796.00;10446324;28;20044;-21
2022/03/12 06:57:33;;;;;;;2.03;1.80;;;;;;;17.06;46.79;96799.38;10458649;28;20481;-21
2022/03/12 07:02:33;;;;;;;3.38;2.35;;;;;;;17.06;46.97;96805.25;10454247;28;20322;-21
2022/03/12 07:07:34;;;;;;;3.70;1.90;;;;;;;17.05;46.91;96812.81;10455646;28;20032;-21
2022/03/12 07:12:35;;;;;;;3.00;2.00;;;;;;;17.06;46.95;96814.56;10461203;28;20051;-21
2022/03/12 07:17:36;;;;;;;3.50;1.98;;;;;;;17.07;47.35;96811.19;10458126;28;20040;-21
2022/03/12 07:22:37;;;;;;;2.83;2.30;;;;;;;17.06;47.26;96810.31;10443712;28;20032;-21
2022/03/12 07:27:38;;;;;;;3.72;2.10;;;;;;;17.08;47.01;96807.81;10460171;28;20345;-21
2022/03/12 07:32:42;;;;;;;3.22;2.17;;;;;;;17.07;46.90;96817.06;10461676;28;20918;-21
2022/03/12 07:37:43;;;;;;;3.65;2.88;;;;;;;16.98;47.12;96801.84;10452926;28;20521;-22
2022/03/12 07:42:45;;;;;;;3.67;2.95;;;;;;;17.06;47.29;96807.78;10445728;28;20037;-22
2022/03/12 07:47:49;;;;;;;8.27;3.70;;;;;;;17.12;48.38;96815.44;10460731;28;20396;-22
2022/03/12 07:52:50;;;;;;;9.05;3.20;;;;;;;17.11;47.97;96816.28;10453391;28;20037;-21
2022/03/12 07:57:51;;;;;;;6.20;3.00;;;;;;;17.11;47.48;96815.41;10455019;28;20044;-21
2022/03/12 08:02:52;;;;;;;7.05;2.90;;;;;;;17.11;47.40;96812.88;10457245;28;20032;-21
2022/03/12 08:07:54;;;;;;;5.47;2.83;;;;;;;17.10;47.02;96821.31;10459646;28;20028;-21
2022/03/12 08:12:57;;;;;;;3.95;2.80;;;;;;;17.00;47.18;96795.09;10458700;28;20120;-22
2022/03/12 08:17:57;;;;;;;3.53;2.65;;;;;;;17.10;47.17;96818.78;10472910;28;20044;-21
2022/03/12 08:22:59;;;;;;;4.83;2.63;;;;;;;17.09;46.88;96819.63;10454414;28;20047;-21
2022/03/12 08:27:59;;;;;;;6.00;3.10;;;;;;;17.07;48.58;96811.19;10459806;28;20060;-21
2022/03/12 08:33:00;;;;;;;11.13;2.65;;;;;;;17.01;49.33;96814.53;10468105;28;20111;-21
2022/03/12 08:38:00;;;;;;;4.88;2.50;;;;;;;17.06;48.00;96819.59;10460818;28;20064;-21
2022/03/12 08:43:01;;;;;;;4.33;2.50;;;;;;;17.07;47.53;96817.06;10470552;28;20036;-21
2022/03/12 08:48:01;;;;;;;5.35;2.63;;;;;;;17.06;47.82;96820.44;10470900;28;20024;-23
2022/03/12 08:53:02;;;;;;;10.10;3.50;;;;;;;17.12;48.34;96819.63;10462904;28;20429;-21
2022/03/12 08:58:02;;;;;;;4.80;2.83;;;;;;;17.18;49.02;96817.16;10468944;28;20382;-21
2022/03/12 09:03:04;;;;;;;21.67;7.47;;;;;;;17.20;46.12;96820.53;10461772;28;20288;-21
2022/03/12 09:08:05;;;;;;;9.15;4.22;;;;;;;16.94;46.29;96810.25;10450818;28;20037;-21
2022/03/12 09:13:06;;;;;;;7.78;4.53;;;;;;;16.91;45.80;96811.91;10456065;28;20464;-22
2022/03/12 09:18:07;;;;;;;9.30;5.03;;;;;;;16.88;45.83;96814.38;10456038;28;20192;-21
2022/03/12 09:23:08;;;;;;;16.20;3.55;;;;;;;16.87;46.80;96807.63;10459365;28;20488;-21
2022/03/12 09:28:09;;;;;;;12.18;4.40;;;;;;;16.98;47.38;96809.41;10451965;28;20035;-21
2022/03/12 09:33:10;;;;;;;5.97;3.00;;;;;;;17.02;47.22;96802.69;10437786;28;20033;-21
2022/03/12 09:38:10;;;;;;;9.50;3.20;;;;;;;17.04;46.89;96789.25;10437148;28;20095;-23
2022/03/12 09:43:11;;;;;;;6.10;2.50;;;;;;;17.05;47.15;96801.03;10440336;28;20040;-21
2022/03/12 09:48:14;;;;;;;4.10;2.60;;;;;;;17.05;47.12;96801.03;10455430;28;20028;-21
2022/03/12 09:53:15;;;;;;;6.35;2.78;;;;;;;17.05;47.14;96802.72;10457475;28;20083;-22
2022/03/12 09:58:15;;;;;;;4.90;3.20;;;;;;;17.05;47.09;96792.59;10461215;28;20115;-21
2022/03/12 10:03:16;;;;;;;8.38;3.90;;;;;;;17.21;48.41;96792.72;10459382;28;20481;-22
2022/03/12 10:08:16;;;;;;;7.00;2.97;;;;;;;17.28;47.42;96786.00;10457403;28;20034;-23
2022/03/12 10:13:17;;;;;;;3.90;2.63;;;;;;;17.17;47.02;96772.44;10456964;28;20037;-21
2022/03/12 10:18:19;;;;;;;7.77;3.43;;;;;;;17.13;46.85;96765.66;10452920;28;20036;-21
2022/03/12 10:23:24;;;;;;;4.15;3.08;;;;;;;17.12;47.26;96769.03;10442312;28;20034;-21
2022/03/12 10:28:24;;;;;;;4.90;3.23;;;;;;;17.11;46.97;96762.28;10451618;28;20036;-21
2022/03/12 10:33:25;;;;;;;4.25;3.22;;;;;;;17.11;47.05;96762.28;10464754;28;20365;-22
2022/03/12 10:38:26;;;;;;;8.38;4.63;;;;;;;17.09;47.28;96763.97;10450308;28;20045;-21
2022/03/12 10:43:28;;;;;;;5.63;3.53;;;;;;;17.10;47.15;96756.41;10455094;28;20047;-22
2022/03/12 10:48:37;;;;;;;5.75;3.80;;;;;;;17.15;47.28;96746.31;10450408;28;20310;-22
2022/03/12 10:53:38;;;;;;;10.45;3.20;;;;;;;17.15;46.89;96748.84;10442476;28;20130;-21
2022/03/12 10:58:38;;;;;;;5.93;3.30;;;;;;;17.15;47.07;96748.84;10443204;28;20043;-21
2022/03/12 11:03:38;;;;;;;11.17;3.20;;;;;;;17.14;47.26;96737.84;10437377;28;20044;-21
2022/03/12 11:08:39;;;;;;;6.07;3.63;;;;;;;17.25;48.03;96736.22;10437362;28;20295;-22
2022/03/12 11:13:47;;;;;;;6.13;3.70;;;;;;;17.37;48.74;96736.34;10456410;28;20061;-21
2022/03/12 11:18:53;;;;;;;5.30;2.77;;;;;;;17.33;47.60;96738.81;10455354;28;20116;-21
2022/03/12 11:23:55;;;;;;;4.88;3.08;;;;;;;17.24;47.32;96739.59;10459359;28;20028;-21
2022/03/12 11:28:57;;;;;;;7.78;2.60;;;;;;;17.23;47.10;96737.06;10449860;28;20047;-21
2022/03/12 11:33:58;;;;;;;8.50;2.72;;;;;;;17.20;47.32;96737.91;10446093;28;20044;-21
2022/03/12 11:38:59;;;;;;;60.45;8.23;;;;;;;17.17;48.32;96742.09;10447407;28;20039;-20
2022/03/12 11:44:01;;;;;;;35.43;5.13;;;;;;;17.18;48.05;96737.06;10444151;28;20685;-21
2022/03/12 11:49:03;;;;;;;35.33;4.78;;;;;;;17.11;48.13;96724.34;10434463;28;20056;-21
2022/03/12 11:54:03;;;;;;;17.23;5.28;;;;;;;17.17;47.99;96727.75;10431194;28;20077;-21
2022/03/12 11:59:04;;;;;;;24.23;4.83;;;;;;;17.21;48.35;96718.50;10431121;28;20069;-21
2022/03/12 12:04:04;;;;;;;28.67;5.40;;;;;;;17.19;48.11;96721.03;10424229;28;20406;-20
2022/03/12 12:09:05;;;;;;;13.43;4.43;;;;;;;17.21;48.82;96718.50;10425398;28;20040;-21
2022/03/12 12:14:06;;;;;;;15.00;3.85;;;;;;;17.40;49.27;96705.13;10421064;28;20063;-21
2022/03/12 12:19:08;;;;;;;17.53;4.07;;;;;;;17.41;48.79;96706.81;10427342;28;20598;-21
2022/03/12 12:24:25;;;;;;;13.10;3.88;;;;;;;17.28;47.67;96698.31;10434798;28;20033;-21
2022/03/12 12:29:40;;;;;;;13.63;4.30;;;;;;;17.25;47.93;96703.31;10457535;28;20038;-20
2022/03/12 12:35:10;;;;;;;25.33;5.78;;;;;;;17.19;48.55;96697.41;10447428;28;20460;-20
2022/03/12 12:40:16;;;;;;;26.40;4.47;;;;;;;17.12;48.43;96673.78;10450946;28;20068;-18
2022/03/12 12:45:22;;;;;;;20.08;4.38;;;;;;;17.10;47.95;96675.47;10423536;28;20438;-24
2022/03/12 12:50:25;;;;;;;12.05;5.15;;;;;;;17.07;47.30;96667.00;10427347;28;20048;-20
2022/03/12 12:55:32;;;;;;;14.73;5.30;;;;;;;17.07;47.03;96661.94;10442017;28;20071;-21
2022/03/12 13:00:35;;;;;;;12.32;4.80;;;;;;;17.07;47.13;96662.78;10433307;28;20034;-22
2022/03/12 13:05:50;;;;;;;7.95;4.65;;;;;;;17.07;46.62;96654.34;10418591;28;20049;-22
2022/03/12 13:10:52;;;;;;;13.82;5.05;;;;;;;17.26;47.81;96635.88;10464370;28;20048;-20
2022/03/12 13:15:55;;;;;;;15.30;6.10;;;;;;;17.24;47.05;96620.69;10471927;28;20112;-21
2022/03/12 13:20:56;;;;;;;9.35;5.03;;;;;;;17.15;46.79;96622.34;10467533;28;20094;-20
2022/03/12 13:25:59;;;;;;;11.77;4.57;;;;;;;17.13;46.79;96608.84;10474479;28;20484;-21
2022/03/12 13:30:59;;;;;;;13.43;5.70;;;;;;;17.10;46.67;96612.22;10458349;28;20029;-22
2022/03/12 13:36:00;;;;;;;13.53;6.03;;;;;;;17.09;46.87;96618.09;10464742;28;20047;-20
2022/03/12 13:41:00;;;;;;;20.25;7.68;;;;;;;17.06;45.95;96607.16;10460643;28;20040;-20
2022/03/12 13:46:03;;;;;;;9.18;5.40;;;;;;;17.05;45.99;96600.38;10458080;28;20029;-20
2022/03/12 13:51:03;;;;;;;9.80;6.55;;;;;;;17.03;45.65;96607.97;10465345;28;20037;-20
2022/03/12 13:56:15;;;;;;;15.30;7.77;;;;;;;16.72;44.68;96606.97;10459386;28;20033;-21
2022/03/12 14:01:29;;;;;;;11.75;7.25;;;;;;;17.04;45.50;96591.97;10456122;28;20035;-21
2022/03/12 14:06:35;;;;;;;16.70;8.23;;;;;;;16.96;45.12;96591.09;10446814;28;20029;-20
2022/03/12 14:11:50;;;;;;;10.67;6.33;;;;;;;17.12;44.81;96581.84;10440202;28;20079;-20
2022/03/12 14:16:56;;;;;;;9.05;5.60;;;;;;;17.06;45.20;96577.63;10440995;28;20043;-20
2022/03/12 14:22:01;;;;;;;10.63;6.20;;;;;;;17.05;45.36;96581.00;10441894;28;20041;-21
2022/03/12 14:27:07;;;;;;;10.93;6.43;;;;;;;17.05;45.22;96570.88;10460611;28;20159;-20
2022/03/12 14:32:12;;;;;;;8.90;6.55;;;;;;;17.02;44.75;96575.09;10455860;28;20051;-22
2022/03/12 14:37:13;;;;;;;10.68;6.28;;;;;;;16.84;45.17;96560.69;10451604;28;20040;-21
2022/03/12 14:42:14;;;;;;;11.45;6.30;;;;;;;16.97;45.04;96556.50;10453827;28;20236;-20
2022/03/12 14:47:15;;;;;;;9.55;5.97;;;;;;;17.00;45.26;96557.38;10450002;28;20025;-21
2022/03/12 14:52:17;;;;;;;8.35;5.53;;;;;;;17.03;45.32;96554.00;10452401;28;20049;-20
2022/03/12 14:57:20;;;;;;;13.07;5.75;;;;;;;17.02;45.24;96557.38;10452377;28;20041;-20
2022/03/12 15:02:26;;;;;;;13.45;5.25;;;;;;;17.05;47.76;96540.53;10445349;28;20073;-20
2022/03/12 15:07:31;;;;;;;9.32;5.60;;;;;;;17.13;49.92;96538.00;10458768;28;20029;-20
2022/03/12 15:12:37;;;;;;;9.48;5.65;;;;;;;17.06;45.75;96538.84;10443682;28;20081;-22
2022/03/12 15:17:38;;;;;;;9.35;6.45;;;;;;;17.02;45.30;96542.22;10443135;28;20075;-24
2022/03/12 15:22:41;;;;;;;9.43;5.68;;;;;;;17.01;45.00;96543.03;10448662;28;20044;-20
2022/03/12 15:27:54;;;;;;;8.52;5.53;;;;;;;16.99;45.28;96545.56;10449310;28;20029;-21
2022/03/12 15:32:55;;;;;;;21.60;8.38;;;;;;;16.92;46.40;96543.84;10443645;28;20028;-21
2022/03/12 15:37:55;;;;;;;13.57;6.72;;;;;;;16.99;45.76;96542.22;10436010;28;20033;-22
2022/03/12 15:42:56;;;;;;;12.60;6.87;;;;;;;16.33;46.77;96541.03;10430936;28;20043;-22
2022/03/12 15:47:58;;;;;;;23.27;8.25;;;;;;;16.16;46.41;96540.94;10433715;28;20064;-21
2022/03/12 15:52:58;;;;;;;30.15;9.40;;;;;;;16.12;45.99;96539.22;10440261;28;20032;-22
2022/03/12 15:58:00;;;;;;;17.83;9.73;;;;;;;16.09;46.55;96533.31;10425353;28;20038;-21
2022/03/12 16:03:00;;;;;;;18.92;9.73;;;;;;;16.07;46.23;96535.84;10431052;28;20033;-24
2022/03/12 16:08:01;;;;;;;16.23;8.60;;;;;;;16.14;45.35;96530.00;10434405;28;20033;-21
2022/03/12 16:13:04;;;;;;;19.83;10.23;;;;;;;16.21;45.03;96544.31;10438149;28;20080;-21
2022/03/12 16:18:06;;;;;;;15.77;9.25;;;;;;;16.34;44.92;96536.00;10441829;28;20025;-21
2022/03/12 16:23:06;;;;;;;14.23;8.25;;;;;;;16.14;45.54;96541.75;10426769;28;20017;-21
2022/03/12 16:28:07;;;;;;;21.80;9.88;;;;;;;16.43;46.23;96536.06;10441946;28;20028;-23
2022/03/12 16:33:07;;;;;;;27.87;8.87;;;;;;;16.84;47.69;96529.50;10435484;28;20041;-21
2022/03/12 16:38:08;;;;;;;17.40;7.27;;;;;;;16.89;45.35;96527.84;10453315;28;20037;-22
2022/03/12 16:43:14;;;;;;;11.63;6.32;;;;;;;16.91;45.32;96524.47;10459924;28;20032;-22
2022/03/12 16:48:16;;;;;;;12.27;7.53;;;;;;;16.94;45.26;96531.22;10442403;28;20063;-20
2022/03/12 16:53:17;;;;;;;15.43;7.50;;;;;;;16.99;49.57;96532.09;10453856;28;20029;-21
2022/03/12 16:58:17;;;;;;;17.93;6.53;;;;;;;17.18;51.65;96532.16;10459547;28;20051;-21
2022/03/12 17:03:18;;;;;;;26.57;7.47;;;;;;;17.15;49.95;96528.75;10444827;28;20662;-22
2022/03/12 17:08:20;;;;;;;11.50;6.70;;;;;;;17.08;46.65;96524.53;10437043;28;20457;-22
2022/03/12 17:13:21;;;;;;;12.25;6.80;;;;;;;17.08;46.02;96529.59;10433393;28;20493;-22
2022/03/12 17:18:23;;;;;;;9.05;5.82;;;;;;;17.04;46.03;96522.81;10459863;28;20028;-23
2022/03/12 17:23:28;;;;;;;19.40;6.55;;;;;;;17.03;46.26;96528.72;10450477;28;20059;-22
2022/03/12 17:28:28;;;;;;;21.15;8.45;;;;;;;17.06;49.34;96532.09;10452828;28;20059;-24
2022/03/12 17:33:29;;;;;;;15.10;6.90;;;;;;;17.04;46.18;96543.91;10454486;28;20038;-22
2022/03/12 17:38:29;;;;;;;11.18;7.03;;;;;;;17.04;46.00;96537.97;10445238;28;20033;-21
2022/03/12 17:43:30;;;;;;;9.60;5.50;;;;;;;17.04;46.04;96537.97;10456660;28;20132;-21
2022/03/12 17:48:31;;;;;;;14.37;7.30;;;;;;;17.02;46.05;96535.47;10449127;28;20033;-23
2022/03/12 17:53:31;;;;;;;16.45;8.60;;;;;;;17.14;52.34;96542.25;10450529;28;20037;-24
2022/03/12 17:58:32;;;;;;;19.00;8.38;;;;;;;17.19;52.27;96538.03;10446261;28;20041;-23
2022/03/12 18:03:32;;;;;;;15.32;7.03;;;;;;;17.11;48.37;96535.50;10450976;28;20033;-22
2022/03/12 18:08:33;;;;;;;12.52;6.43;;;;;;;17.06;46.96;96542.22;10454749;28;20109;-22
2022/03/12 18:13:34;;;;;;;13.90;7.13;;;;;;;17.05;46.52;96544.72;10453238;28;20029;-21
2022/03/12 18:18:34;;;;;;;9.70;5.90;;;;;;;17.04;46.82;96543.03;10457616;28;20341;-22
2022/03/12 18:23:37;;;;;;;6.57;4.50;;;;;;;17.02;46.20;96539.69;10458865;28;20051;-23
2022/03/12 18:28:41;;;;;;;10.43;5.72;;;;;;;17.03;46.39;96536.31;10451168;28;20291;-24
2022/03/12 18:33:47;;;;;;;9.10;5.38;;;;;;;17.04;46.66;96536.31;10452193;28;20052;-24
2022/03/12 18:38:47;;;;;;;8.95;5.40;;;;;;;17.02;46.62;96530.41;10446567;28;20033;-22
2022/03/12 18:43:49;;;;;;;9.75;4.65;;;;;;;17.01;46.58;96532.94;10435838;28;20400;-21
2022/03/12 18:48:51;;;;;;;28.33;6.15;;;;;;;16.94;48.28;96534.59;10444486;28;20041;-22
2022/03/12 18:53:51;;;;;;;30.38;7.97;;;;;;;17.16;52.27;96533.81;10438015;28;20064;-22
2022/03/12 18:58:53;;;;;;;19.08;6.85;;;;;;;17.24;47.57;96526.25;10460197;28;20123;-23
2022/03/12 19:03:53;;;;;;;25.85;7.15;;;;;;;17.24;48.80;96523.72;10432759;28;20033;-22
2022/03/12 19:08:54;;;;;;;24.42;9.15;;;;;;;17.15;47.27;96529.59;10428700;28;20420;-23
2022/03/12 19:13:55;;;;;;;11.20;5.37;;;;;;;17.08;47.03;96525.34;10444165;28;20111;-24
2022/03/12 19:18:55;;;;;;;15.68;6.97;;;;;;;17.07;48.79;96528.72;10452659;28;20632;-23
2022/03/12 19:23:56;;;;;;;6.70;4.73;;;;;;;17.04;47.21;96533.78;10433390;28;20040;-22
2022/03/12 19:28:56;;;;;;;8.93;4.47;;;;;;;17.02;47.01;96539.69;10448247;28;20037;-22
2022/03/12 19:33:56;;;;;;;7.33;4.93;;;;;;;16.94;47.07;96526.16;10450375;28;20051;-24
2022/03/12 19:38:57;;;;;;;9.10;5.37;;;;;;;17.04;46.52;96533.78;10447102;28;20492;-23
2022/03/12 19:43:59;;;;;;;8.88;5.10;;;;;;;17.06;47.07;96538.84;10436014;28;20302;-25
2022/03/12 19:48:59;;;;;;;5.43;4.28;;;;;;;17.10;46.92;96527.91;10437565;28;20080;-23
2022/03/12 19:53:59;;;;;;;14.10;7.27;;;;;;;17.19;52.05;96532.97;10437822;28;20037;-23
2022/03/12 19:59:01;;;;;;;18.15;6.95;;;;;;;17.13;51.92;96522.84;10452933;28;20036;-22
2022/03/12 20:04:02;;;;;;;12.75;5.63;;;;;;;17.17;47.87;96530.44;10455696;28;20504;-24
2022/03/12 20:09:03;;;;;;;7.93;4.38;;;;;;;17.11;46.53;96534.63;10459390;28;20470;-23
2022/03/12 20:14:05;;;;;;;5.82;3.78;;;;;;;17.12;46.55;96533.78;10450988;28;20032;-25
2022/03/12 20:19:05;;;;;;;5.40;3.67;;;;;;;17.13;46.97;96533.81;10454668;28;20044;-23
2022/03/12 20:24:07;;;;;;;8.98;4.50;;;;;;;17.08;47.06;96530.41;10459905;28;20028;-25
2022/03/12 20:29:08;;;;;;;9.50;4.50;;;;;;;17.12;46.65;96529.59;10445703;28;20037;-25
2022/03/12 20:34:09;;;;;;;8.80;4.10;;;;;;;17.12;46.79;96523.69;10452647;28;20135;-23
2022/03/12 20:39:10;;;;;;;5.43;3.97;;;;;;;17.11;46.49;96527.06;10450018;28;20037;-24
2022/03/12 20:44:11;;;;;;;6.43;4.60;;;;;;;17.06;46.66;96526.22;10453464;28;20029;-23
2022/03/12 20:49:12;;;;;;;13.23;6.97;;;;;;;17.05;51.13;96521.97;10437137;28;20507;-22
2022/03/12 20:54:12;;;;;;;12.43;6.07;;;;;;;17.15;51.54;96516.13;10443172;28;20332;-23
2022/03/12 20:59:13;;;;;;;9.20;5.78;;;;;;;17.19;48.30;96527.91;10457642;28;20119;-24
2022/03/12 21:04:16;;;;;;;5.50;4.50;;;;;;;17.19;47.18;96528.78;10449755;28;20116;-23
2022/03/12 21:09:17;;;;;;;7.55;4.10;;;;;;;17.20;47.17;96524.53;10455149;28;20036;-23
2022/03/12 21:14:17;;;;;;;5.55;4.15;;;;;;;17.17;47.08;96522.00;10455643;28;20043;-24
2022/03/12 21:19:18;;;;;;;8.27;4.50;;;;;;;17.15;46.84;96513.59;10454348;28;20036;-24
2022/03/12 21:24:23;;;;;;;6.35;4.50;;;;;;;17.15;47.17;96499.22;10455027;28;20044;-23
2022/03/12 21:29:27;;;;;;;6.90;4.03;;;;;;;17.16;47.22;96502.63;10456780;28;20029;-22
2022/03/12 21:34:27;;;;;;;6.38;4.07;;;;;;;17.12;47.24;96490.78;10452125;28;20472;-24
2022/03/12 21:39:27;;;;;;;6.80;4.20;;;;;;;17.16;47.23;96502.63;10463627;28;20041;-23
2022/03/12 21:44:28;;;;;;;7.63;4.37;;;;;;;17.17;47.11;96496.72;10444033;28;20049;-24
2022/03/12 21:49:28;;;;;;;6.13;4.50;;;;;;;17.16;47.19;96495.03;10448293;28;20095;-23
2022/03/12 21:54:28;;;;;;;6.43;4.80;;;;;;;17.19;50.31;96495.88;10456874;28;20299;-23
2022/03/12 21:59:30;;;;;;;6.43;4.63;;;;;;;17.19;50.53;96495.88;10443672;28;20124;-23
2022/03/12 22:04:31;;;;;;;6.47;3.90;;;;;;;17.16;48.11;96493.31;10450259;28;20021;-23
2022/03/12 22:09:32;;;;;;;9.23;4.03;;;;;;;17.15;47.21;96499.22;10464450;28;20029;-23
2022/03/12 22:14:32;;;;;;;5.00;3.40;;;;;;;17.13;46.95;96487.41;10454379;28;20076;-22
2022/03/12 22:19:32;;;;;;;4.47;4.00;;;;;;;17.09;47.29;96480.69;10460608;28;20295;-23
2022/03/12 22:24:33;;;;;;;7.90;4.68;;;;;;;17.11;46.80;96479.00;10459965;28;20280;-24
2022/03/12 22:29:35;;;;;;;6.07;4.43;;;;;;;17.10;47.00;96479.84;10455826;28;20155;-23
2022/03/12 22:34:35;;;;;;;4.72;3.38;;;;;;;17.09;46.97;96485.75;10449933;28;20057;-23
2022/03/12 22:39:36;;;;;;;4.88;3.72;;;;;;;17.04;46.98;96485.72;10451523;28;20169;-23
2022/03/12 22:44:38;;;;;;;5.28;3.83;;;;;;;17.07;46.92;96492.50;10461788;28;20810;-24
2022/03/12 22:49:41;;;;;;;6.13;4.57;;;;;;;17.06;47.10;96491.63;10455650;28;20068;-22
2022/03/12 22:54:43;;;;;;;6.68;4.82;;;;;;;17.12;51.35;96495.84;10453452;28;20041;-24
2022/03/12 22:59:44;;;;;;;8.48;4.82;;;;;;;17.16;51.90;96493.31;10457375;28;20307;-23
2022/03/12 23:10:07;;;;;;;5.13;3.92;;;;;;;17.09;47.72;96493.34;10461240;28;20035;-23
2022/03/12 23:15:14;;;;;;;4.70;3.63;;;;;;;17.08;47.51;96487.41;10447356;28;20114;-24
2022/03/12 23:20:37;;;;;;;3.88;3.40;;;;;;;17.05;47.33;96481.50;10457793;28;20488;-22
2022/03/12 23:25:38;;;;;;;5.15;3.25;;;;;;;17.05;47.72;96489.94;10454365;28;20068;-24